Terminal Aerodrome Forecast
Issued by NWS Duluth, MN

Home | Current Version | Previous Version | Text Only | Print | Product List | Glossary On
Versions: 1 2 3 4 5 6 7 8 9 10 11 12 13 14 15 16 17 18 19 20 21 22 23 24 25 26 27 28 29 30 31 32 33 34
000
FTUS43 KDLH 260000 AAA
TAFINL
TAF AMD
KINL 260015Z 2600/2624 30012G22KT 5SM -SN BLSN SCT008 OVC020
      TEMPO 2600/2604 3/4SM BLSN BR OVC008
     FM260400 33010G18KT P6SM SCT015 OVC025
     FM261000 35011KT P6SM BKN035
     FM261800 36010KT P6SM SCT050=

USA.gov is the U.S. government's official web portal to all federal, state and local government web resources and services.